Time;durP1;ratioP1;P1;durP2;ratioP2;P2;SDS_P1;SDS_P2;PMS_P1;PMS_P2;Temp;Humidity;BMP_temperature;BMP_pressure;BME280_temperature;BME280_humidity;BME280_pressure;Samples;Min_cycle;Max_cycle;Signal;HPM_P1;HPM_P2
2021/04/08 00:01:11;;;;;;;8.18;5.93;;;;;;;;;;5056645;28;20032;-83
2021/04/08 00:03:37;;;;;;;6.35;4.80;;;;;;;;;;5074908;28;20056;-88
2021/04/08 00:06:04;;;;;;;11.35;6.35;;;;;;;;;;5056697;28;20471;-85
2021/04/08 00:08:30;;;;;;;8.02;5.90;;;;;;;;;;5074806;28;20071;-85
2021/04/08 00:10:56;;;;;;;8.52;5.47;;;;;;;;;;5074623;28;20021;-84
2021/04/08 00:13:23;;;;;;;9.25;6.03;;;;;;;;;;5056725;28;20849;-88
2021/04/08 00:15:49;;;;;;;7.20;5.25;;;;;;;;;;5074600;28;20098;-88
2021/04/08 00:18:16;;;;;;;6.15;5.55;;;;;;;;;;5056452;28;20028;-86
2021/04/08 00:20:43;;;;;;;7.57;5.38;;;;;;;;;;5056663;28;20028;-86
2021/04/08 00:23:09;;;;;;;7.13;5.18;;;;;;;;;;5074107;28;20024;-85
2021/04/08 00:25:38;;;;;;;5.70;4.82;;;;;;;;;;5074824;28;20032;-86
2021/04/08 00:28:07;;;;;;;6.97;5.05;;;;;;;;;;5074483;28;20024;-86
2021/04/08 00:30:42;;;;;;;7.47;5.30;;;;;;;;;;5074166;28;20039;-86
2021/04/08 00:33:09;;;;;;;7.63;5.65;;;;;;;;;;5074293;28;20020;-87
2021/04/08 00:35:35;;;;;;;6.78;5.50;;;;;;;;;;5074289;28;20078;-84
2021/04/08 00:38:02;;;;;;;6.15;4.72;;;;;;;;;;5056046;28;20044;-86
2021/04/08 00:40:28;;;;;;;6.70;5.50;;;;;;;;;;5074107;28;20032;-86
2021/04/08 00:42:54;;;;;;;7.30;5.53;;;;;;;;;;5073822;28;20028;-87
2021/04/08 00:45:20;;;;;;;7.25;5.75;;;;;;;;;;5074163;28;20486;-88
2021/04/08 00:47:47;;;;;;;6.55;5.55;;;;;;;;;;5056019;28;20021;-85
2021/04/08 00:50:14;;;;;;;8.02;5.35;;;;;;;;;;5056119;28;20112;-86
2021/04/08 00:52:42;;;;;;;8.20;5.55;;;;;;;;;;5074036;28;20028;-86
2021/04/08 00:55:08;;;;;;;6.85;5.78;;;;;;;;;;5073812;28;20364;-85
2021/04/08 00:57:34;;;;;;;7.63;6.07;;;;;;;;;;5055723;28;20052;-86
2021/04/08 01:00:05;;;;;;;7.15;5.60;;;;;;;;;;5073442;28;20103;-88
2021/04/08 01:02:46;;;;;;;7.15;5.82;;;;;;;;;;5055824;28;20033;-87
2021/04/08 01:05:22;;;;;;;6.82;5.22;;;;;;;;;;5073820;28;20475;-87
2021/04/08 01:07:52;;;;;;;6.03;4.97;;;;;;;;;;5073606;28;20099;-86
2021/04/08 01:10:23;;;;;;;5.78;4.65;;;;;;;;;;5055581;28;20024;-85
2021/04/08 01:12:50;;;;;;;6.40;5.07;;;;;;;;;;5073717;28;20028;-84
2021/04/08 01:15:17;;;;;;;6.90;5.68;;;;;;;;;;5073557;28;20056;-86
2021/04/08 01:17:49;;;;;;;8.48;5.90;;;;;;;;;;5073300;28;20037;-82
2021/04/08 01:20:21;;;;;;;7.15;5.00;;;;;;;;;;5073263;28;20107;-86
2021/04/08 01:22:47;;;;;;;6.80;4.85;;;;;;;;;;5055363;28;20025;-87
2021/04/08 01:25:16;;;;;;;8.13;5.53;;;;;;;;;;5073257;28;20463;-86
2021/04/08 01:27:54;;;;;;;5.80;3.83;;;;;;;;;;5073079;28;20096;-86
2021/04/08 01:30:39;;;;;;;6.70;4.90;;;;;;;;;;5072836;28;20099;-89
2021/04/08 01:33:08;;;;;;;6.82;4.95;;;;;;;;;;5072939;28;20059;-84
2021/04/08 01:35:35;;;;;;;7.28;4.80;;;;;;;;;;5073208;28;20036;-85
2021/04/08 01:38:06;;;;;;;6.43;4.90;;;;;;;;;;5054901;28;20172;-82
2021/04/08 01:40:33;;;;;;;7.70;5.78;;;;;;;;;;5073014;28;20024;-86
2021/04/08 01:43:00;;;;;;;10.82;6.05;;;;;;;;;;5054867;28;20115;-85
2021/04/08 01:45:27;;;;;;;7.13;5.03;;;;;;;;;;5072750;28;20062;-84
2021/04/08 01:47:54;;;;;;;7.88;5.13;;;;;;;;;;5072734;28;20074;-85
2021/04/08 01:50:20;;;;;;;7.22;5.32;;;;;;;;;;5072736;28;20024;-86
2021/04/08 01:52:48;;;;;;;5.50;4.80;;;;;;;;;;5072729;28;20597;-87
2021/04/08 01:55:14;;;;;;;6.55;5.13;;;;;;;;;;5054901;28;20108;-82
2021/04/08 01:57:42;;;;;;;7.57;5.70;;;;;;;;;;5072698;28;20048;-83
2021/04/08 02:00:09;;;;;;;5.15;4.35;;;;;;;;;;5071931;28;20113;-84
2021/04/08 02:02:35;;;;;;;7.65;5.13;;;;;;;;;;5072622;28;20379;-85
2021/04/08 02:05:02;;;;;;;6.43;4.78;;;;;;;;;;5072583;28;20028;-84
2021/04/08 02:07:28;;;;;;;7.80;4.90;;;;;;;;;;5072648;28;20119;-83
2021/04/08 02:09:54;;;;;;;6.07;4.85;;;;;;;;;;5072607;28;20034;-85
2021/04/08 02:12:21;;;;;;;5.68;4.70;;;;;;;;;;5072367;28;20111;-87
2021/04/08 02:14:49;;;;;;;7.10;5.85;;;;;;;;;;5072658;28;20064;-86
2021/04/08 02:17:17;;;;;;;5.68;4.82;;;;;;;;;;5072530;28;20039;-83
2021/04/08 02:19:46;;;;;;;7.75;4.97;;;;;;;;;;5054634;28;20021;-87
2021/04/08 02:22:12;;;;;;;7.65;4.95;;;;;;;;;;5072314;28;20422;-86
2021/04/08 02:24:39;;;;;;;8.82;4.97;;;;;;;;;;5054546;28;20394;-81
2021/04/08 02:27:05;;;;;;;7.13;5.40;;;;;;;;;;5072199;28;20070;-82
2021/04/08 02:29:33;;;;;;;6.15;4.47;;;;;;;;;;5072531;28;20020;-81
2021/04/08 02:32:00;;;;;;;8.55;5.28;;;;;;;;;;5072266;28;20035;-86
2021/04/08 02:34:26;;;;;;;6.03;5.07;;;;;;;;;;5072190;28;20033;-87
2021/04/08 02:36:52;;;;;;;7.93;5.35;;;;;;;;;;5054552;28;20024;-83
2021/04/08 02:39:18;;;;;;;7.78;4.75;;;;;;;;;;5072235;28;20024;-81
2021/04/08 02:41:45;;;;;;;6.85;4.50;;;;;;;;;;5072078;28;20028;-82
2021/04/08 02:44:12;;;;;;;6.90;5.10;;;;;;;;;;5072131;28;20396;-86
2021/04/08 02:46:38;;;;;;;8.15;4.80;;;;;;;;;;5054266;28;20463;-83
2021/04/08 02:49:04;;;;;;;9.73;4.95;;;;;;;;;;5072083;28;20490;-82
2021/04/08 02:51:33;;;;;;;8.88;5.90;;;;;;;;;;5072192;28;20027;-87
2021/04/08 02:54:12;;;;;;;6.93;5.10;;;;;;;;;;5054099;28;20126;-83
2021/04/08 02:56:41;;;;;;;7.82;5.35;;;;;;;;;;5072009;28;20052;-86
2021/04/08 02:59:27;;;;;;;9.38;5.57;;;;;;;;;;5071943;28;20066;-84
2021/04/08 03:02:04;;;;;;;7.30;4.88;;;;;;;;;;5071980;28;20041;-82
2021/04/08 03:04:33;;;;;;;10.68;5.30;;;;;;;;;;5071878;28;20020;-82
2021/04/08 03:07:00;;;;;;;9.65;5.50;;;;;;;;;;5072030;28;20029;-85
2021/04/08 03:09:30;;;;;;;6.70;5.00;;;;;;;;;;5071852;28;20024;-82
2021/04/08 03:11:59;;;;;;;8.73;5.03;;;;;;;;;;5055382;28;20467;-81
2021/04/08 03:14:25;;;;;;;7.60;4.95;;;;;;;;;;5075534;28;20033;-85
2021/04/08 03:16:52;;;;;;;6.88;5.10;;;;;;;;;;5075756;28;20090;-84
2021/04/08 03:19:21;;;;;;;7.45;5.90;;;;;;;;;;5075555;28;20060;-86
2021/04/08 03:21:48;;;;;;;7.45;5.28;;;;;;;;;;5075789;28;20540;-81
2021/04/08 03:24:14;;;;;;;6.75;5.10;;;;;;;;;;5075856;28;20485;-81
2021/04/08 03:26:41;;;;;;;7.55;5.35;;;;;;;;;;5075495;28;20047;-79
2021/04/08 03:29:09;;;;;;;8.35;5.40;;;;;;;;;;5075568;28;20033;-84
2021/04/08 03:31:35;;;;;;;9.10;5.72;;;;;;;;;;5057362;28;20028;-85
2021/04/08 03:34:02;;;;;;;6.50;5.40;;;;;;;;;;5057380;28;20139;-84
2021/04/08 03:36:28;;;;;;;6.38;4.93;;;;;;;;;;5075272;28;20090;-85
2021/04/08 03:38:55;;;;;;;8.02;5.55;;;;;;;;;;5057318;28;20390;-82
2021/04/08 03:41:22;;;;;;;8.38;5.55;;;;;;;;;;5057374;28;20024;-82
2021/04/08 03:43:48;;;;;;;8.02;5.50;;;;;;;;;;5057333;28;20081;-85
2021/04/08 03:46:15;;;;;;;6.50;4.68;;;;;;;;;;5075164;28;20031;-87
2021/04/08 03:48:42;;;;;;;6.88;5.65;;;;;;;;;;5075055;28;20455;-87
2021/04/08 03:51:09;;;;;;;7.53;4.75;;;;;;;;;;5075124;28;20508;-86
2021/04/08 03:53:36;;;;;;;7.07;4.80;;;;;;;;;;5056960;28;20093;-87
2021/04/08 03:56:03;;;;;;;6.72;5.35;;;;;;;;;;5056943;28;20082;-86
2021/04/08 03:58:29;;;;;;;6.68;4.93;;;;;;;;;;5074760;28;20121;-87
2021/04/08 04:00:56;;;;;;;5.63;5.03;;;;;;;;;;5056785;28;20028;-87
2021/04/08 04:03:22;;;;;;;7.85;6.20;;;;;;;;;;5074573;28;20029;-84
2021/04/08 04:05:49;;;;;;;8.40;5.82;;;;;;;;;;5074858;28;20054;-83
2021/04/08 04:08:15;;;;;;;7.13;5.35;;;;;;;;;;5074802;28;20505;-86
2021/04/08 04:10:41;;;;;;;8.45;5.40;;;;;;;;;;5056568;28;20070;-86
2021/04/08 04:13:11;;;;;;;7.05;5.10;;;;;;;;;;5074320;28;20100;-85
2021/04/08 04:15:38;;;;;;;7.60;4.82;;;;;;;;;;5074414;28;20031;-81
2021/04/08 04:18:08;;;;;;;13.43;5.88;;;;;;;;;;5074717;28;20029;-84
2021/04/08 04:20:35;;;;;;;7.75;5.93;;;;;;;;;;5074339;28;20028;-83
2021/04/08 04:23:02;;;;;;;9.60;5.10;;;;;;;;;;5074181;28;20052;-82
2021/04/08 04:25:28;;;;;;;8.77;5.63;;;;;;;;;;5074060;28;20027;-81
2021/04/08 04:27:55;;;;;;;7.05;5.20;;;;;;;;;;5074196;28;20426;-79
2021/04/08 04:30:21;;;;;;;8.75;5.50;;;;;;;;;;5074259;28;20020;-81
2021/04/08 04:32:47;;;;;;;7.63;5.18;;;;;;;;;;5074099;28;20047;-81
2021/04/08 04:35:13;;;;;;;8.52;6.05;;;;;;;;;;5056284;28;20119;-80
2021/04/08 04:37:39;;;;;;;9.85;6.32;;;;;;;;;;5055998;28;20119;-83
2021/04/08 04:40:06;;;;;;;11.35;6.22;;;;;;;;;;5074211;28;20103;-79
2021/04/08 04:42:34;;;;;;;10.10;5.93;;;;;;;;;;5073814;28;20028;-84
2021/04/08 04:45:00;;;;;;;10.68;7.03;;;;;;;;;;5056007;28;20028;-82
2021/04/08 04:47:26;;;;;;;8.80;6.50;;;;;;;;;;5073786;28;20109;-79
2021/04/08 04:49:52;;;;;;;9.68;6.38;;;;;;;;;;5055962;28;20500;-83
2021/04/08 04:52:18;;;;;;;9.07;5.88;;;;;;;;;;5073788;28;20025;-80
2021/04/08 04:54:44;;;;;;;11.35;6.50;;;;;;;;;;5055678;28;20399;-82
2021/04/08 04:57:10;;;;;;;8.07;6.38;;;;;;;;;;5073546;28;20041;-80
2021/04/08 04:59:37;;;;;;;10.32;7.15;;;;;;;;;;5073211;28;20024;-83
2021/04/08 05:02:03;;;;;;;10.93;8.70;;;;;;;;;;5073410;28;20040;-82
2021/04/08 05:04:29;;;;;;;9.88;6.85;;;;;;;;;;5073609;28;20075;-83
2021/04/08 05:06:55;;;;;;;12.07;7.03;;;;;;;;;;5072360;28;20068;-80
2021/04/08 05:09:21;;;;;;;9.95;6.60;;;;;;;;;;5073491;28;20052;-83
2021/04/08 05:11:48;;;;;;;15.18;9.27;;;;;;;;;;5073217;28;20082;-82
2021/04/08 05:14:14;;;;;;;12.77;7.82;;;;;;;;;;5073445;28;20119;-80
2021/04/08 05:16:40;;;;;;;13.75;7.80;;;;;;;;;;5073279;28;20103;-82
2021/04/08 05:19:06;;;;;;;11.48;5.68;;;;;;;;;;5073302;28;20425;-75
2021/04/08 05:21:32;;;;;;;7.18;5.97;;;;;;;;;;5073044;28;20421;-81
2021/04/08 05:23:59;;;;;;;8.38;6.07;;;;;;;;;;5060825;28;20451;-81
2021/04/08 05:26:25;;;;;;;10.65;7.28;;;;;;;;;;5072198;28;20484;-79
2021/04/08 05:28:51;;;;;;;13.63;8.45;;;;;;;;;;5070755;28;20031;-81
2021/04/08 05:31:18;;;;;;;10.55;6.97;;;;;;;;;;5071612;28;20964;-83
2021/04/08 05:40:16;;;;;;;10.57;7.80;;;;;;;;;;5070741;28;20121;-84
2021/04/08 05:45:52;;;;;;;9.60;7.93;;;;;;;;;;5071766;28;20101;-85
2021/04/08 05:48:18;;;;;;;8.82;6.13;;;;;;;;;;5071009;28;20475;-81
2021/04/08 05:50:50;;;;;;;10.73;8.52;;;;;;;;;;5071338;28;20037;-81
2021/04/08 05:53:16;;;;;;;10.02;7.25;;;;;;;;;;5053259;28;20067;-83
2021/04/08 05:55:42;;;;;;;13.10;8.82;;;;;;;;;;5070759;28;20487;-83
2021/04/08 05:58:09;;;;;;;9.20;7.28;;;;;;;;;;5071169;28;20047;-83
2021/04/08 07:49:17;;;;;;;;;;;;;;;;;;5055738;28;20055;-80
2021/04/08 07:51:43;;;;;;;8.75;6.95;;;;;;;;;;5055443;28;19908;-83
2021/04/08 07:54:14;;;;;;;7.68;5.93;;;;;;;;;;5073692;28;20044;-81
2021/04/08 07:56:41;;;;;;;10.05;6.68;;;;;;;;;;5073458;28;20032;-79
2021/04/08 07:59:29;;;;;;;9.38;8.25;;;;;;;;;;5072715;28;20034;-85
2021/04/08 08:02:01;;;;;;;9.82;8.07;;;;;;;;;;5072610;28;20068;-83
2021/04/08 08:04:28;;;;;;;8.70;7.40;;;;;;;;;;5075040;28;20450;-81
2021/04/08 08:06:55;;;;;;;10.57;8.02;;;;;;;;;;5055497;28;20024;-85
2021/04/08 08:09:22;;;;;;;9.55;5.95;;;;;;;;;;5073449;28;20447;-83
2021/04/08 08:11:49;;;;;;;6.97;5.25;;;;;;;;;;5073019;28;20063;-83
2021/04/08 08:14:16;;;;;;;8.57;5.88;;;;;;;;;;5073453;28;20032;-80
2021/04/08 08:17:00;;;;;;;11.07;7.78;;;;;;;;;;5073130;28;20103;-83
2021/04/08 08:19:27;;;;;;;8.40;4.47;;;;;;;;;;5070645;28;20029;-82
2021/04/08 08:21:54;;;;;;;13.93;8.73;;;;;;;;;;5053075;28;20029;-80
2021/04/08 08:24:21;;;;;;;8.50;5.60;;;;;;;;;;5052755;28;20502;-83
2021/04/08 08:26:48;;;;;;;6.45;4.72;;;;;;;;;;5064995;28;20051;-81
2021/04/08 08:29:18;;;;;;;6.82;4.90;;;;;;;;;;5072932;28;20029;-81
2021/04/08 08:31:47;;;;;;;8.57;5.75;;;;;;;;;;5072758;28;20031;-85
2021/04/08 08:34:13;;;;;;;10.00;7.30;;;;;;;;;;5072343;28;20127;-80
2021/04/08 08:36:40;;;;;;;9.48;6.03;;;;;;;;;;5071935;28;20029;-83
2021/04/08 08:39:08;;;;;;;9.63;6.55;;;;;;;;;;5062197;28;20113;-82
2021/04/08 08:41:35;;;;;;;8.40;6.97;;;;;;;;;;5072499;28;20029;-85
2021/04/08 08:44:03;;;;;;;11.02;7.07;;;;;;;;;;5071368;28;20074;-73
2021/04/08 08:46:29;;;;;;;9.85;8.00;;;;;;;;;;5070993;28;20157;-84
2021/04/08 08:48:56;;;;;;;10.02;8.70;;;;;;;;;;5071649;28;20060;-84
2021/04/08 08:51:23;;;;;;;7.22;6.10;;;;;;;;;;5072985;28;20039;-84
2021/04/08 08:53:50;;;;;;;6.97;4.82;;;;;;;;;;5071245;28;20043;-83
2021/04/08 08:56:17;;;;;;;8.27;5.72;;;;;;;;;;5053717;28;20033;-79
2021/04/08 08:58:43;;;;;;;11.05;5.93;;;;;;;;;;5071519;28;20065;-79
2021/04/08 09:01:09;;;;;;;5.45;4.18;;;;;;;;;;5052691;28;20039;-80
2021/04/08 10:18:25;;;;;;;;;;;;;;;;;;5025531;28;20060;-82
2021/04/08 10:20:52;;;;;;;9.05;5.20;;;;;;;;;;5030884;28;20359;-79
2021/04/08 10:23:37;;;;;;;7.97;5.22;;;;;;;;;;5031022;28;20017;-82
2021/04/08 10:26:10;;;;;;;5.45;3.78;;;;;;;;;;5037293;28;20467;-80
2021/04/08 10:28:40;;;;;;;4.75;3.55;;;;;;;;;;5050979;28;20055;-79
2021/04/08 10:31:14;;;;;;;6.53;3.38;;;;;;;;;;5050439;28;20025;-83
2021/04/08 10:33:40;;;;;;;7.30;4.13;;;;;;;;;;5037670;28;20095;-80
2021/04/08 10:36:06;;;;;;;6.88;5.13;;;;;;;;;;5029384;28;20052;-83
2021/04/08 10:38:32;;;;;;;7.78;5.53;;;;;;;;;;5029382;28;20494;-82
2021/04/08 10:41:00;;;;;;;8.73;5.22;;;;;;;;;;5029023;28;20388;-83
2021/04/08 10:43:26;;;;;;;7.65;5.57;;;;;;;;;;5031001;28;20034;-85
2021/04/08 10:45:52;;;;;;;8.77;5.80;;;;;;;;;;5030928;28;20033;-80
2021/04/08 10:48:18;;;;;;;8.93;6.72;;;;;;;;;;5030502;28;20138;-82
2021/04/08 10:50:45;;;;;;;8.25;5.95;;;;;;;;;;5029513;28;20025;-86
2021/04/08 10:53:11;;;;;;;5.90;4.50;;;;;;;;;;5030257;28;20476;-82
2021/04/08 10:55:37;;;;;;;8.35;5.70;;;;;;;;;;5030687;28;20037;-83
2021/04/08 10:58:03;;;;;;;8.13;4.88;;;;;;;;;;5030523;28;20024;-83
2021/04/08 11:00:30;;;;;;;10.80;7.35;;;;;;;;;;5030758;28;20033;-79
2021/04/08 11:02:58;;;;;;;6.78;5.10;;;;;;;;;;5028862;28;20072;-81
2021/04/08 11:05:25;;;;;;;7.90;6.95;;;;;;;;;;5029261;28;20483;-81
2021/04/08 11:07:54;;;;;;;9.13;7.15;;;;;;;;;;5030376;28;20030;-80
2021/04/08 11:10:26;;;;;;;10.15;6.97;;;;;;;;;;5029751;28;20114;-83
2021/04/08 11:12:53;;;;;;;9.88;7.20;;;;;;;;;;5030600;28;20090;-83
2021/04/08 11:15:23;;;;;;;7.70;4.53;;;;;;;;;;5030144;28;20041;-83
2021/04/08 11:17:51;;;;;;;9.30;5.70;;;;;;;;;;5045595;28;20094;-81
2021/04/08 11:20:18;;;;;;;9.10;6.72;;;;;;;;;;5050234;28;20071;-80
2021/04/08 11:22:45;;;;;;;7.45;5.95;;;;;;;;;;5050133;28;20484;-83
2021/04/08 11:25:18;;;;;;;7.85;6.95;;;;;;;;;;5048875;28;20041;-82
2021/04/08 11:27:45;;;;;;;6.38;4.60;;;;;;;;;;5044548;28;20036;-80
2021/04/08 11:30:30;;;;;;;6.63;5.22;;;;;;;;;;5049606;28;20021;-80
2021/04/08 11:32:58;;;;;;;6.32;5.13;;;;;;;;;;5050853;28;20056;-84
2021/04/08 11:35:37;;;;;;;6.25;5.00;;;;;;;;;;5051835;28;20127;-84
2021/04/08 11:38:06;;;;;;;7.88;5.88;;;;;;;;;;5052291;28;20021;-81
2021/04/08 11:40:33;;;;;;;9.35;5.75;;;;;;;;;;5053358;28;20023;-82
2021/04/08 11:42:59;;;;;;;6.40;4.45;;;;;;;;;;5052762;28;20395;-79
2021/04/08 11:45:25;;;;;;;6.57;4.15;;;;;;;;;;5051304;28;20455;-80
2021/04/08 11:48:02;;;;;;;5.93;3.08;;;;;;;;;;5053476;28;20449;-85
2021/04/08 11:50:36;;;;;;;6.10;4.72;;;;;;;;;;5053389;28;20135;-85
2021/04/08 11:53:02;;;;;;;4.32;3.35;;;;;;;;;;5053383;28;20096;-84
2021/04/08 11:55:47;;;;;;;5.20;3.33;;;;;;;;;;5053311;28;20043;-82
2021/04/08 11:58:23;;;;;;;5.80;3.70;;;;;;;;;;5053468;28;20029;-82
2021/04/08 12:00:50;;;;;;;5.65;3.78;;;;;;;;;;5053072;28;20086;-81
2021/04/08 12:03:21;;;;;;;5.68;4.75;;;;;;;;;;5051834;28;20395;-83
2021/04/08 12:05:47;;;;;;;9.45;5.88;;;;;;;;;;5053548;28;20047;-83
2021/04/08 12:08:13;;;;;;;4.20;2.85;;;;;;;;;;5051221;28;20550;-80
2021/04/08 12:10:40;;;;;;;4.22;3.05;;;;;;;;;;5053476;28;20049;-81
2021/04/08 12:13:10;;;;;;;7.30;5.28;;;;;;;;;;5053163;28;20024;-82
2021/04/08 12:15:36;;;;;;;7.53;3.97;;;;;;;;;;5052601;28;20035;-81
2021/04/08 12:18:09;;;;;;;5.32;3.95;;;;;;;;;;5051547;28;20115;-83
2021/04/08 12:20:36;;;;;;;3.05;2.58;;;;;;;;;;5052807;28;20029;-81
2021/04/08 12:23:12;;;;;;;5.25;4.35;;;;;;;;;;5051963;28;20051;-83
2021/04/08 12:25:42;;;;;;;6.32;3.95;;;;;;;;;;5051077;28;20476;-81
2021/04/08 12:28:08;;;;;;;6.28;3.72;;;;;;;;;;5050460;28;20025;-80
2021/04/08 12:30:35;;;;;;;6.07;3.80;;;;;;;;;;5051726;28;20056;-82
2021/04/08 12:33:01;;;;;;;8.55;5.90;;;;;;;;;;5052583;28;20072;-81
2021/04/08 12:35:27;;;;;;;5.55;3.90;;;;;;;;;;5052228;28;20037;-79
2021/04/08 12:37:53;;;;;;;7.38;5.15;;;;;;;;;;5052479;28;20064;-80
2021/04/08 12:40:19;;;;;;;7.63;5.60;;;;;;;;;;5052947;28;20057;-83
2021/04/08 12:42:46;;;;;;;7.20;5.28;;;;;;;;;;5052647;28;20029;-81
2021/04/08 12:45:12;;;;;;;3.28;2.25;;;;;;;;;;5048662;28;20019;-84
2021/04/08 12:47:38;;;;;;;5.95;3.78;;;;;;;;;;5052224;28;20036;-82
2021/04/08 12:50:04;;;;;;;7.32;4.50;;;;;;;;;;5053553;28;20079;-85
2021/04/08 12:52:30;;;;;;;4.75;2.80;;;;;;;;;;5053195;28;20510;-85
2021/04/08 12:54:57;;;;;;;6.60;4.68;;;;;;;;;;5053646;28;20059;-82
2021/04/08 12:57:23;;;;;;;4.22;2.13;;;;;;;;;;5053420;28;20029;-81
2021/04/08 12:59:49;;;;;;;10.95;6.60;;;;;;;;;;5051732;28;20033;-83
2021/04/08 13:02:15;;;;;;;6.10;4.70;;;;;;;;;;5052665;28;20029;-83
2021/04/08 13:04:41;;;;;;;6.72;5.15;;;;;;;;;;5051390;28;20037;-81
2021/04/08 13:07:08;;;;;;;7.38;5.20;;;;;;;;;;5053554;28;20029;-84
2021/04/08 13:25:24;;;;;;;7.65;4.38;;;;;;;;;;5033278;28;20048;-87
2021/04/08 13:27:51;;;;;;;5.78;3.88;;;;;;;;;;5031373;28;20517;-82
2021/04/08 13:30:18;;;;;;;6.57;4.40;;;;;;;;;;5030479;28;20087;-70
2021/04/08 13:32:44;;;;;;;5.28;3.63;;;;;;;;;;5033059;28;20116;-83
2021/04/08 13:35:11;;;;;;;6.32;4.68;;;;;;;;;;5033026;28;20127;-83
2021/04/08 13:37:37;;;;;;;5.88;2.65;;;;;;;;;;5033356;28;20382;-80
2021/04/08 13:40:04;;;;;;;2.53;1.85;;;;;;;;;;5033078;28;20491;-81
2021/04/08 13:42:31;;;;;;;3.58;2.15;;;;;;;;;;5033203;28;20357;-80
2021/04/08 13:44:57;;;;;;;4.07;2.33;;;;;;;;;;5032666;28;20018;-79
2021/04/08 13:47:23;;;;;;;7.80;5.05;;;;;;;;;;5033306;28;20430;-84
2021/04/08 13:49:49;;;;;;;7.13;4.63;;;;;;;;;;5031360;28;20120;-81
2021/04/08 13:52:15;;;;;;;5.65;4.60;;;;;;;;;;5032921;28;20029;-84
2021/04/08 13:54:41;;;;;;;5.00;3.33;;;;;;;;;;5032422;28;20052;-81
2021/04/08 13:57:08;;;;;;;5.63;3.38;;;;;;;;;;5031162;28;20116;-77
2021/04/08 13:59:34;;;;;;;5.85;4.18;;;;;;;;;;5032672;28;20033;-82
2021/04/08 14:02:00;;;;;;;6.20;3.20;;;;;;;;;;5032708;28;20034;-81
2021/04/08 14:04:26;;;;;;;5.43;4.15;;;;;;;;;;5032666;28;20026;-80
2021/04/08 14:06:52;;;;;;;7.40;4.13;;;;;;;;;;5032418;28;20057;-80
2021/04/08 14:09:19;;;;;;;11.02;6.90;;;;;;;;;;5032675;28;20021;-84
2021/04/08 14:11:45;;;;;;;13.05;6.88;;;;;;;;;;5032742;28;20030;-79
2021/04/08 14:14:12;;;;;;;10.80;7.18;;;;;;;;;;5032371;28;20043;-79
2021/04/08 14:16:40;;;;;;;9.38;5.30;;;;;;;;;;5032465;28;20560;-83
2021/04/08 14:19:06;;;;;;;8.00;4.43;;;;;;;;;;5031954;28;20484;-81
2021/04/08 14:21:33;;;;;;;7.57;5.05;;;;;;;;;;5032427;28;20116;-81
2021/04/08 14:23:59;;;;;;;10.48;6.78;;;;;;;;;;5040862;28;20052;-84
2021/04/08 14:26:25;;;;;;;9.07;5.75;;;;;;;;;;5052113;28;20119;-84
2021/04/08 14:28:52;;;;;;;4.15;3.25;;;;;;;;;;5052095;28;20021;-85
2021/04/08 14:31:18;;;;;;;7.38;4.95;;;;;;;;;;5050271;28;20025;-82
2021/04/08 14:33:44;;;;;;;8.77;6.43;;;;;;;;;;5051883;28;20044;-83
2021/04/08 14:36:10;;;;;;;4.25;2.80;;;;;;;;;;5052240;28;20036;-82
2021/04/08 14:38:36;;;;;;;3.58;1.90;;;;;;;;;;5052066;28;20029;-83
2021/04/08 14:41:02;;;;;;;6.18;4.00;;;;;;;;;;5052203;28;20033;-85
2021/04/08 14:43:28;;;;;;;10.27;6.70;;;;;;;;;;5052473;28;20104;-86
2021/04/08 14:45:54;;;;;;;6.50;4.68;;;;;;;;;;5051982;28;20032;-82
2021/04/08 14:48:21;;;;;;;9.82;5.28;;;;;;;;;;5052163;28;20025;-85
2021/04/08 14:50:47;;;;;;;6.90;3.30;;;;;;;;;;5052729;28;20368;-82
2021/04/08 14:53:13;;;;;;;9.50;6.40;;;;;;;;;;5051918;28;20100;-86
2021/04/08 14:55:39;;;;;;;9.98;6.18;;;;;;;;;;5052184;28;20044;-84
2021/04/08 14:58:05;;;;;;;11.10;6.53;;;;;;;;;;5057375;28;20202;-83
2021/04/08 15:00:31;;;;;;;9.90;6.22;;;;;;;;;;5070450;28;20054;-84
2021/04/08 15:02:58;;;;;;;9.20;4.85;;;;;;;;;;5071618;28;20044;-82
2021/04/08 15:05:24;;;;;;;10.23;6.03;;;;;;;;;;5071038;28;20023;-81
2021/04/08 15:07:50;;;;;;;9.75;6.60;;;;;;;;;;5074858;28;20024;-82
2021/04/08 15:10:18;;;;;;;7.30;4.45;;;;;;;;;;5057281;28;20033;-80
2021/04/08 15:12:44;;;;;;;8.80;6.18;;;;;;;;;;5075766;28;20033;-82
2021/04/08 15:15:12;;;;;;;7.82;4.63;;;;;;;;;;5075222;28;20044;-84
2021/04/08 15:17:38;;;;;;;9.88;5.40;;;;;;;;;;5057899;28;20033;-82
2021/04/08 15:20:05;;;;;;;4.90;3.55;;;;;;;;;;5075209;28;20028;-86
2021/04/08 15:22:31;;;;;;;4.28;3.00;;;;;;;;;;5075047;28;20043;-84
2021/04/08 15:24:57;;;;;;;5.15;2.50;;;;;;;;;;5075512;28;20515;-85
2021/04/08 15:27:23;;;;;;;8.80;5.30;;;;;;;;;;5075458;28;20043;-84
2021/04/08 15:29:49;;;;;;;6.18;4.45;;;;;;;;;;5057722;28;20028;-85
2021/04/08 15:32:16;;;;;;;9.75;7.20;;;;;;;;;;5074603;28;20099;-83
2021/04/08 15:34:42;;;;;;;7.75;6.57;;;;;;;;;;5075024;28;20036;-87
2021/04/08 15:37:08;;;;;;;9.68;7.80;;;;;;;;;;5075187;28;20060;-84
2021/04/08 15:39:36;;;;;;;9.35;6.18;;;;;;;;;;5057246;28;20414;-86
2021/04/08 15:42:03;;;;;;;11.27;9.10;;;;;;;;;;5075017;28;20028;-84
2021/04/08 15:44:29;;;;;;;16.42;11.15;;;;;;;;;;5074902;28;20032;-85
2021/04/08 15:46:55;;;;;;;8.90;6.53;;;;;;;;;;5074732;28;20475;-83
2021/04/08 15:49:21;;;;;;;7.90;5.28;;;;;;;;;;5056324;28;20036;-79
2021/04/08 15:51:47;;;;;;;6.93;4.93;;;;;;;;;;5075188;28;20031;-85
2021/04/08 15:54:13;;;;;;;14.73;8.43;;;;;;;;;;5074543;28;20046;-84
2021/04/08 15:56:39;;;;;;;10.02;6.35;;;;;;;;;;5074694;28;20033;-83
2021/04/08 15:59:05;;;;;;;12.88;9.55;;;;;;;;;;5074170;28;20031;-83
2021/04/08 16:01:31;;;;;;;11.10;6.53;;;;;;;;;;5074602;28;20041;-84
2021/04/08 16:04:00;;;;;;;15.20;10.98;;;;;;;;;;5074556;28;20391;-80
2021/04/08 16:06:26;;;;;;;13.13;9.13;;;;;;;;;;5074276;28;20608;-83
2021/04/08 16:08:55;;;;;;;18.98;12.25;;;;;;;;;;5074536;28;20052;-84
2021/04/08 16:11:21;;;;;;;14.45;10.38;;;;;;;;;;5074204;28;20051;-84
2021/04/08 16:13:47;;;;;;;16.30;12.23;;;;;;;;;;5074767;28;20479;-82
2021/04/08 16:16:13;;;;;;;17.88;13.48;;;;;;;;;;5074002;28;20040;-85
2021/04/08 16:18:39;;;;;;;31.58;22.05;;;;;;;;;;5073563;28;20482;-82
2021/04/08 16:21:06;;;;;;;16.77;11.10;;;;;;;;;;5074783;28;20024;-83
2021/04/08 16:23:32;;;;;;;22.25;15.45;;;;;;;;;;5074218;28;20048;-85
2021/04/08 16:25:58;;;;;;;15.13;9.38;;;;;;;;;;5074645;28;20032;-84
2021/04/08 16:28:24;;;;;;;12.23;9.38;;;;;;;;;;5074278;28;20062;-85
2021/04/08 16:30:51;;;;;;;12.98;8.75;;;;;;;;;;5074406;28;20032;-83
2021/04/08 16:33:18;;;;;;;16.75;11.35;;;;;;;;;;5073998;28;20033;-83
2021/04/08 16:35:44;;;;;;;29.50;16.77;;;;;;;;;;5074065;28;20029;-81
2021/04/08 16:38:10;;;;;;;15.15;10.43;;;;;;;;;;5074169;28;20090;-83
2021/04/08 16:40:36;;;;;;;15.93;10.13;;;;;;;;;;5071388;28;20112;-83
2021/04/08 16:43:02;;;;;;;20.13;14.55;;;;;;;;;;5074185;28;20021;-84
2021/04/08 16:45:29;;;;;;;15.93;12.48;;;;;;;;;;5073738;28;20021;-83
2021/04/08 16:47:55;;;;;;;31.27;22.50;;;;;;;;;;5074026;28;20099;-83
2021/04/08 16:50:21;;;;;;;22.83;13.20;;;;;;;;;;5055710;28;20024;-74
2021/04/08 16:52:47;;;;;;;33.50;18.92;;;;;;;;;;5073760;28;20024;-84
2021/04/08 16:55:13;;;;;;;22.63;15.88;;;;;;;;;;5073724;28;20040;-83
2021/04/08 16:57:40;;;;;;;29.20;20.52;;;;;;;;;;5055357;28;20253;-84
2021/04/08 17:00:11;;;;;;;26.27;19.27;;;;;;;;;;5073582;28;20365;-84
2021/04/08 17:02:37;;;;;;;40.72;25.38;;;;;;;;;;5073750;28;20029;-84
2021/04/08 17:05:04;;;;;;;36.17;23.80;;;;;;;;;;5055392;28;20029;-83
2021/04/08 17:07:30;;;;;;;43.00;27.25;;;;;;;;;;5074163;28;20032;-83
2021/04/08 17:09:56;;;;;;;33.50;21.75;;;;;;;;;;5055981;28;20554;-83
2021/04/08 17:12:22;;;;;;;26.92;19.45;;;;;;;;;;5073808;28;20024;-83
2021/04/08 17:14:51;;;;;;;36.35;24.55;;;;;;;;;;5074261;28;20090;-85
2021/04/08 17:17:21;;;;;;;33.42;22.45;;;;;;;;;;5074176;28;20028;-85
2021/04/08 17:19:48;;;;;;;19.85;13.27;;;;;;;;;;5074169;28;20044;-83
2021/04/08 17:22:14;;;;;;;22.02;15.05;;;;;;;;;;5074029;28;20062;-86
2021/04/08 17:24:40;;;;;;;23.00;15.68;;;;;;;;;;5073925;28;20443;-85
2021/04/08 17:27:07;;;;;;;23.40;16.13;;;;;;;;;;5055229;28;20027;-85
2021/04/08 17:29:33;;;;;;;18.60;14.02;;;;;;;;;;5055350;28;20020;-85
2021/04/08 17:31:59;;;;;;;18.90;13.15;;;;;;;;;;5073031;28;20029;-84
2021/04/08 17:34:25;;;;;;;19.17;13.43;;;;;;;;;;5073428;28;20037;-84
2021/04/08 17:36:51;;;;;;;14.43;9.85;;;;;;;;;;5073403;28;20069;-84
2021/04/08 17:39:17;;;;;;;13.52;8.57;;;;;;;;;;5055417;28;20024;-84
2021/04/08 17:41:44;;;;;;;11.50;7.70;;;;;;;;;;5073401;28;20051;-83
2021/04/08 17:44:10;;;;;;;15.30;9.75;;;;;;;;;;5055200;28;20032;-84
2021/04/08 17:46:36;;;;;;;33.05;23.98;;;;;;;;;;5073214;28;20059;-84
2021/04/08 17:49:02;;;;;;;26.33;17.25;;;;;;;;;;5072895;28;20047;-83
2021/04/08 17:51:29;;;;;;;14.50;9.07;;;;;;;;;;5073179;28;20505;-84
2021/04/08 17:53:55;;;;;;;40.58;23.25;;;;;;;;;;5072634;28;20028;-84
2021/04/08 17:56:21;;;;;;;34.95;25.20;;;;;;;;;;5072713;28;20559;-84
2021/04/08 17:58:47;;;;;;;32.20;21.48;;;;;;;;;;5072787;28;20055;-82
2021/04/08 18:01:13;;;;;;;44.72;28.27;;;;;;;;;;5072409;28;20029;-84
2021/04/08 18:03:39;;;;;;;31.88;23.25;;;;;;;;;;5072789;28;20033;-82
2021/04/08 18:06:09;;;;;;;21.05;14.93;;;;;;;;;;5072544;28;20111;-84
2021/04/08 18:08:36;;;;;;;25.30;16.00;;;;;;;;;;5072695;28;20134;-83